Tri Cities Airport
KPSC : rendu visible

Aérodrome :











RETROUVEZ-NOUS SUR...

 
LOGIN :

S'inscrire | Disclaimer

   EN    FR    IT 

 









Légende :    VFR   VFR Marginal   IFR   IFR Intensif   IFR Très Intensif
Visi : 
Plafond : 
>= 8 km
>= 3000ft
5 à 8 km
1000 à 3000 ft
1500m à 5 km
500 à 1000 ft
800 à 1500m
200 à 500 ft
< 800m
< 200 ft
Symboles :   Orages  Brouillard  Fortes neiges  Fortes précipitations  Vent > 20 kt






- Altitude de l'aérodrome : 410 ft
- Code IATA : PSC


KPSC - Tri Cities

DERNIER METAR :
  • 312053Z 21017G23KT 10SM CLR 24/06 A2999 RMK AO2 PK WND 21027/2031 SLP154 T02390061 51005

METARs EXPIRÉS :
  • 311953Z 21016G24KT 10SM CLR 23/06 A2999 RMK AO2 PK WND 21027/1911 SLP154 T02280056
  • 311853Z 21019G23KT 10SM CLR 22/07 A2998 RMK AO2 PK WND 20026/1842 SLP151 T02220067

TAF KPSC
Valide du 31 à 18h jusqu'au 01 à 18h UTC


311720Z 3118/0118 22018G26KT P6SM FEW070
FM312200 22016KT P6SM FEW200
FM010300 VRB05KT P6SM SCT200
FM011000 VRB04KT P6SM BKN100 OVC200
FM011400 21004KT P6SM OVC100
FIR KZSE / Amérique du Nord



MET'MAP, la Météo Aéronautique d'un coup d'oeil ! - Copyright ORBIFLY Décembre 2007 - Disclaimer

ORBIFLY MET'MAP TEAM :

Programmation & Développement : Alexandra Zaïnal
Sur une idée originale de : Baudouin d'Aumeries
Assistance à la programmation : Marc-Olivier Méhu
Soutien technique & logistique : Manuel Goepfert

Contact : metmap@orbifly.com




SOURCES & CREDITS :

   NOAA       Earth
Advisory